sensor_id;sensor_type;location;lat;lon;timestamp;P1;durP1;ratioP1;P2;durP2;ratioP2
75234;SDS011;63817;51.228;-1.472;2023-05-29T00:01:16;18.08;;;5.47;;
75234;SDS011;63817;51.228;-1.472;2023-05-29T00:03:46;16.55;;;4.03;;
75234;SDS011;63817;51.228;-1.472;2023-05-29T00:06:12;18.23;;;4.93;;
75234;SDS011;63817;51.228;-1.472;2023-05-29T00:08:38;16.67;;;5.45;;
75234;SDS011;63817;51.228;-1.472;2023-05-29T00:11:04;14.43;;;5.00;;
75234;SDS011;63817;51.228;-1.472;2023-05-29T00:13:29;24.50;;;5.60;;
75234;SDS011;63817;51.228;-1.472;2023-05-29T00:15:55;16.17;;;4.03;;
75234;SDS011;63817;51.228;-1.472;2023-05-29T00:18:21;20.60;;;4.90;;
75234;SDS011;63817;51.228;-1.472;2023-05-29T00:20:46;22.70;;;5.18;;
75234;SDS011;63817;51.228;-1.472;2023-05-29T00:23:12;17.25;;;5.00;;
75234;SDS011;63817;51.228;-1.472;2023-05-29T00:25:38;20.13;;;4.80;;
75234;SDS011;63817;51.228;-1.472;2023-05-29T00:28:05;20.15;;;4.95;;
75234;SDS011;63817;51.228;-1.472;2023-05-29T00:30:32;24.27;;;4.60;;
75234;SDS011;63817;51.228;-1.472;2023-05-29T00:32:57;31.80;;;4.60;;
75234;SDS011;63817;51.228;-1.472;2023-05-29T00:35:22;12.35;;;3.97;;
75234;SDS011;63817;51.228;-1.472;2023-05-29T00:37:48;18.63;;;4.32;;
75234;SDS011;63817;51.228;-1.472;2023-05-29T00:40:13;20.73;;;4.93;;
75234;SDS011;63817;51.228;-1.472;2023-05-29T00:42:39;20.83;;;5.28;;
75234;SDS011;63817;51.228;-1.472;2023-05-29T00:45:04;18.17;;;4.30;;
75234;SDS011;63817;51.228;-1.472;2023-05-29T00:47:31;17.00;;;4.60;;
75234;SDS011;63817;51.228;-1.472;2023-05-29T00:49:56;20.95;;;5.00;;
75234;SDS011;63817;51.228;-1.472;2023-05-29T00:52:23;30.08;;;4.60;;
75234;SDS011;63817;51.228;-1.472;2023-05-29T00:54:48;16.50;;;4.00;;
75234;SDS011;63817;51.228;-1.472;2023-05-29T00:57:14;25.50;;;4.20;;
75234;SDS011;63817;51.228;-1.472;2023-05-29T00:59:41;16.95;;;4.55;;
75234;SDS011;63817;51.228;-1.472;2023-05-29T01:02:07;21.00;;;5.13;;
75234;SDS011;63817;51.228;-1.472;2023-05-29T01:04:32;26.73;;;4.68;;
75234;SDS011;63817;51.228;-1.472;2023-05-29T01:07:01;22.52;;;4.82;;
75234;SDS011;63817;51.228;-1.472;2023-05-29T01:09:27;26.50;;;4.40;;
75234;SDS011;63817;51.228;-1.472;2023-05-29T01:17:37;16.13;;;4.10;;
75234;SDS011;63817;51.228;-1.472;2023-05-29T01:28:42;16.05;;;2.95;;
75234;SDS011;63817;51.228;-1.472;2023-05-29T01:31:10;19.55;;;4.88;;
75234;SDS011;63817;51.228;-1.472;2023-05-29T01:33:40;19.85;;;3.97;;
75234;SDS011;63817;51.228;-1.472;2023-05-29T01:36:07;16.25;;;4.13;;
75234;SDS011;63817;51.228;-1.472;2023-05-29T01:38:36;19.48;;;4.18;;
75234;SDS011;63817;51.228;-1.472;2023-05-29T01:41:02;17.45;;;4.72;;
75234;SDS011;63817;51.228;-1.472;2023-05-29T01:43:28;20.85;;;3.97;;
75234;SDS011;63817;51.228;-1.472;2023-05-29T01:45:54;20.90;;;4.03;;
75234;SDS011;63817;51.228;-1.472;2023-05-29T01:48:20;16.85;;;4.70;;
75234;SDS011;63817;51.228;-1.472;2023-05-29T01:50:45;16.85;;;4.50;;
75234;SDS011;63817;51.228;-1.472;2023-05-29T01:53:12;17.90;;;3.67;;
75234;SDS011;63817;51.228;-1.472;2023-05-29T01:55:38;13.52;;;3.67;;
75234;SDS011;63817;51.228;-1.472;2023-05-29T01:58:03;17.42;;;3.95;;
75234;SDS011;63817;51.228;-1.472;2023-05-29T02:00:29;16.90;;;4.45;;
75234;SDS011;63817;51.228;-1.472;2023-05-29T02:02:55;17.83;;;3.35;;
75234;SDS011;63817;51.228;-1.472;2023-05-29T02:05:20;23.80;;;4.28;;
75234;SDS011;63817;51.228;-1.472;2023-05-29T02:07:46;14.23;;;3.30;;
75234;SDS011;63817;51.228;-1.472;2023-05-29T02:10:12;17.90;;;3.88;;
75234;SDS011;63817;51.228;-1.472;2023-05-29T02:12:37;17.63;;;3.60;;
75234;SDS011;63817;51.228;-1.472;2023-05-29T02:15:03;17.00;;;4.00;;
75234;SDS011;63817;51.228;-1.472;2023-05-29T02:17:28;20.75;;;4.57;;
75234;SDS011;63817;51.228;-1.472;2023-05-29T02:19:54;20.23;;;3.90;;
75234;SDS011;63817;51.228;-1.472;2023-05-29T02:22:19;17.08;;;4.65;;
75234;SDS011;63817;51.228;-1.472;2023-05-29T02:24:45;14.13;;;4.10;;
75234;SDS011;63817;51.228;-1.472;2023-05-29T02:27:10;19.98;;;3.33;;
75234;SDS011;63817;51.228;-1.472;2023-05-29T02:29:35;16.50;;;3.75;;
75234;SDS011;63817;51.228;-1.472;2023-05-29T02:32:01;13.73;;;3.72;;
75234;SDS011;63817;51.228;-1.472;2023-05-29T02:34:26;16.33;;;3.50;;
75234;SDS011;63817;51.228;-1.472;2023-05-29T02:36:52;14.30;;;3.70;;
75234;SDS011;63817;51.228;-1.472;2023-05-29T02:39:18;16.52;;;3.92;;
75234;SDS011;63817;51.228;-1.472;2023-05-29T02:41:44;22.52;;;5.07;;
75234;SDS011;63817;51.228;-1.472;2023-05-29T02:44:09;19.08;;;4.07;;
75234;SDS011;63817;51.228;-1.472;2023-05-29T02:46:34;15.88;;;3.67;;
75234;SDS011;63817;51.228;-1.472;2023-05-29T02:49:00;19.85;;;4.22;;
75234;SDS011;63817;51.228;-1.472;2023-05-29T02:51:25;17.77;;;3.53;;
75234;SDS011;63817;51.228;-1.472;2023-05-29T02:53:52;13.98;;;3.30;;
75234;SDS011;63817;51.228;-1.472;2023-05-29T02:56:17;15.68;;;3.13;;
75234;SDS011;63817;51.228;-1.472;2023-05-29T02:58:43;20.42;;;4.43;;
75234;SDS011;63817;51.228;-1.472;2023-05-29T03:01:08;25.65;;;4.15;;
75234;SDS011;63817;51.228;-1.472;2023-05-29T03:03:34;13.82;;;3.30;;
75234;SDS011;63817;51.228;-1.472;2023-05-29T03:06:00;20.25;;;3.85;;
75234;SDS011;63817;51.228;-1.472;2023-05-29T03:08:26;22.50;;;4.55;;
75234;SDS011;63817;51.228;-1.472;2023-05-29T03:10:53;26.77;;;4.43;;
75234;SDS011;63817;51.228;-1.472;2023-05-29T03:13:19;20.90;;;4.88;;
75234;SDS011;63817;51.228;-1.472;2023-05-29T03:15:44;20.02;;;4.00;;
75234;SDS011;63817;51.228;-1.472;2023-05-29T03:18:10;19.88;;;3.65;;
75234;SDS011;63817;51.228;-1.472;2023-05-29T03:20:35;18.65;;;4.60;;
75234;SDS011;63817;51.228;-1.472;2023-05-29T03:23:01;20.38;;;4.10;;
75234;SDS011;63817;51.228;-1.472;2023-05-29T03:25:27;19.60;;;4.13;;
75234;SDS011;63817;51.228;-1.472;2023-05-29T03:27:52;18.08;;;4.63;;
75234;SDS011;63817;51.228;-1.472;2023-05-29T03:30:18;20.27;;;4.43;;
75234;SDS011;63817;51.228;-1.472;2023-05-29T03:32:45;19.77;;;4.20;;
75234;SDS011;63817;51.228;-1.472;2023-05-29T03:35:10;17.27;;;3.63;;
75234;SDS011;63817;51.228;-1.472;2023-05-29T03:37:36;19.58;;;4.93;;
75234;SDS011;63817;51.228;-1.472;2023-05-29T03:40:02;25.23;;;5.25;;
75234;SDS011;63817;51.228;-1.472;2023-05-29T03:42:28;18.67;;;4.13;;
75234;SDS011;63817;51.228;-1.472;2023-05-29T03:44:56;21.90;;;3.88;;
75234;SDS011;63817;51.228;-1.472;2023-05-29T03:47:21;15.18;;;3.53;;
75234;SDS011;63817;51.228;-1.472;2023-05-29T03:49:47;18.63;;;3.90;;
75234;SDS011;63817;51.228;-1.472;2023-05-29T03:52:12;20.77;;;3.80;;
75234;SDS011;63817;51.228;-1.472;2023-05-29T03:54:38;14.75;;;3.58;;
75234;SDS011;63817;51.228;-1.472;2023-05-29T03:57:03;25.38;;;4.40;;
75234;SDS011;63817;51.228;-1.472;2023-05-29T03:59:28;21.75;;;4.20;;
75234;SDS011;63817;51.228;-1.472;2023-05-29T04:01:54;23.27;;;4.22;;
75234;SDS011;63817;51.228;-1.472;2023-05-29T04:04:19;13.07;;;3.72;;
75234;SDS011;63817;51.228;-1.472;2023-05-29T04:06:45;21.85;;;4.22;;
75234;SDS011;63817;51.228;-1.472;2023-05-29T04:09:10;23.08;;;5.30;;
75234;SDS011;63817;51.228;-1.472;2023-05-29T04:11:36;25.20;;;4.25;;
75234;SDS011;63817;51.228;-1.472;2023-05-29T04:14:01;21.77;;;4.68;;
75234;SDS011;63817;51.228;-1.472;2023-05-29T04:16:27;21.08;;;4.50;;
75234;SDS011;63817;51.228;-1.472;2023-05-29T04:18:53;19.08;;;3.90;;
75234;SDS011;63817;51.228;-1.472;2023-05-29T04:21:19;14.80;;;3.38;;
75234;SDS011;63817;51.228;-1.472;2023-05-29T04:23:45;17.77;;;3.42;;
75234;SDS011;63817;51.228;-1.472;2023-05-29T04:26:11;25.15;;;4.00;;
75234;SDS011;63817;51.228;-1.472;2023-05-29T04:28:37;28.40;;;5.03;;
75234;SDS011;63817;51.228;-1.472;2023-05-29T04:31:03;19.55;;;3.53;;
75234;SDS011;63817;51.228;-1.472;2023-05-29T04:33:30;20.02;;;4.38;;
75234;SDS011;63817;51.228;-1.472;2023-05-29T04:35:57;20.77;;;4.25;;
75234;SDS011;63817;51.228;-1.472;2023-05-29T04:38:23;22.98;;;3.97;;
75234;SDS011;63817;51.228;-1.472;2023-05-29T04:40:51;16.33;;;4.28;;
75234;SDS011;63817;51.228;-1.472;2023-05-29T04:43:17;18.83;;;3.75;;
75234;SDS011;63817;51.228;-1.472;2023-05-29T04:45:43;28.98;;;4.68;;
75234;SDS011;63817;51.228;-1.472;2023-05-29T04:48:08;21.85;;;4.45;;
75234;SDS011;63817;51.228;-1.472;2023-05-29T04:50:33;20.88;;;4.03;;
75234;SDS011;63817;51.228;-1.472;2023-05-29T04:53:00;14.90;;;3.88;;
75234;SDS011;63817;51.228;-1.472;2023-05-29T04:55:25;24.90;;;4.22;;
75234;SDS011;63817;51.228;-1.472;2023-05-29T04:57:51;18.27;;;3.58;;
75234;SDS011;63817;51.228;-1.472;2023-05-29T05:00:18;26.77;;;4.78;;
75234;SDS011;63817;51.228;-1.472;2023-05-29T05:02:43;21.90;;;4.57;;
75234;SDS011;63817;51.228;-1.472;2023-05-29T05:05:09;30.85;;;3.95;;
75234;SDS011;63817;51.228;-1.472;2023-05-29T05:07:35;14.95;;;4.38;;
75234;SDS011;63817;51.228;-1.472;2023-05-29T05:10:01;16.88;;;3.97;;
75234;SDS011;63817;51.228;-1.472;2023-05-29T05:12:28;18.25;;;3.72;;
75234;SDS011;63817;51.228;-1.472;2023-05-29T05:14:53;19.17;;;3.83;;
75234;SDS011;63817;51.228;-1.472;2023-05-29T05:17:18;27.02;;;4.03;;
75234;SDS011;63817;51.228;-1.472;2023-05-29T05:19:45;23.33;;;4.30;;
75234;SDS011;63817;51.228;-1.472;2023-05-29T05:22:12;22.35;;;4.03;;
75234;SDS011;63817;51.228;-1.472;2023-05-29T05:24:37;22.45;;;3.47;;
75234;SDS011;63817;51.228;-1.472;2023-05-29T05:27:03;16.73;;;3.58;;
75234;SDS011;63817;51.228;-1.472;2023-05-29T05:29:29;21.63;;;3.75;;
75234;SDS011;63817;51.228;-1.472;2023-05-29T05:31:54;22.25;;;3.55;;
75234;SDS011;63817;51.228;-1.472;2023-05-29T05:34:20;16.90;;;3.95;;
75234;SDS011;63817;51.228;-1.472;2023-05-29T05:36:45;18.20;;;3.97;;
75234;SDS011;63817;51.228;-1.472;2023-05-29T05:39:11;29.50;;;4.60;;
75234;SDS011;63817;51.228;-1.472;2023-05-29T05:41:36;19.85;;;3.95;;
75234;SDS011;63817;51.228;-1.472;2023-05-29T05:44:01;21.05;;;4.28;;
75234;SDS011;63817;51.228;-1.472;2023-05-29T05:46:27;20.92;;;3.58;;
75234;SDS011;63817;51.228;-1.472;2023-05-29T05:48:53;20.73;;;3.80;;
75234;SDS011;63817;51.228;-1.472;2023-05-29T05:51:21;20.35;;;4.25;;
75234;SDS011;63817;51.228;-1.472;2023-05-29T05:53:47;16.10;;;3.90;;
75234;SDS011;63817;51.228;-1.472;2023-05-29T05:56:12;14.65;;;3.92;;
75234;SDS011;63817;51.228;-1.472;2023-05-29T05:58:37;22.85;;;4.53;;
75234;SDS011;63817;51.228;-1.472;2023-05-29T06:01:03;18.00;;;4.53;;
75234;SDS011;63817;51.228;-1.472;2023-05-29T06:03:28;24.75;;;3.53;;
75234;SDS011;63817;51.228;-1.472;2023-05-29T06:05:54;14.90;;;3.03;;
75234;SDS011;63817;51.228;-1.472;2023-05-29T06:08:20;16.55;;;3.55;;
75234;SDS011;63817;51.228;-1.472;2023-05-29T06:10:45;14.18;;;3.38;;
75234;SDS011;63817;51.228;-1.472;2023-05-29T06:13:11;15.95;;;3.70;;
75234;SDS011;63817;51.228;-1.472;2023-05-29T06:15:37;15.25;;;3.50;;
75234;SDS011;63817;51.228;-1.472;2023-05-29T06:18:03;15.98;;;3.45;;
75234;SDS011;63817;51.228;-1.472;2023-05-29T06:20:30;22.42;;;3.53;;
75234;SDS011;63817;51.228;-1.472;2023-05-29T06:22:55;17.58;;;3.58;;
75234;SDS011;63817;51.228;-1.472;2023-05-29T06:25:21;13.77;;;4.07;;
75234;SDS011;63817;51.228;-1.472;2023-05-29T06:27:46;17.08;;;2.97;;
75234;SDS011;63817;51.228;-1.472;2023-05-29T06:30:12;8.90;;;2.72;;
75234;SDS011;63817;51.228;-1.472;2023-05-29T06:32:37;18.25;;;3.78;;
75234;SDS011;63817;51.228;-1.472;2023-05-29T06:35:03;16.98;;;3.30;;
75234;SDS011;63817;51.228;-1.472;2023-05-29T06:37:29;14.85;;;3.35;;
75234;SDS011;63817;51.228;-1.472;2023-05-29T06:39:54;17.33;;;4.22;;
75234;SDS011;63817;51.228;-1.472;2023-05-29T06:42:19;21.65;;;4.00;;
75234;SDS011;63817;51.228;-1.472;2023-05-29T06:44:45;13.52;;;3.75;;
75234;SDS011;63817;51.228;-1.472;2023-05-29T06:47:10;14.35;;;2.88;;
75234;SDS011;63817;51.228;-1.472;2023-05-29T06:49:36;14.13;;;3.47;;
75234;SDS011;63817;51.228;-1.472;2023-05-29T06:52:01;17.80;;;3.33;;
75234;SDS011;63817;51.228;-1.472;2023-05-29T06:54:26;14.57;;;3.30;;
75234;SDS011;63817;51.228;-1.472;2023-05-29T06:56:52;17.33;;;3.70;;
75234;SDS011;63817;51.228;-1.472;2023-05-29T06:59:18;18.85;;;3.22;;
75234;SDS011;63817;51.228;-1.472;2023-05-29T07:01:44;14.75;;;3.70;;
75234;SDS011;63817;51.228;-1.472;2023-05-29T07:04:10;15.48;;;3.40;;
75234;SDS011;63817;51.228;-1.472;2023-05-29T07:06:36;12.25;;;3.28;;
75234;SDS011;63817;51.228;-1.472;2023-05-29T07:09:01;12.75;;;3.22;;
75234;SDS011;63817;51.228;-1.472;2023-05-29T07:11:27;11.98;;;3.35;;
75234;SDS011;63817;51.228;-1.472;2023-05-29T07:13:55;16.02;;;4.32;;
75234;SDS011;63817;51.228;-1.472;2023-05-29T07:16:21;14.38;;;3.53;;
75234;SDS011;63817;51.228;-1.472;2023-05-29T07:18:46;12.73;;;3.25;;
75234;SDS011;63817;51.228;-1.472;2023-05-29T07:21:12;11.93;;;3.15;;
75234;SDS011;63817;51.228;-1.472;2023-05-29T07:23:37;17.60;;;3.42;;
75234;SDS011;63817;51.228;-1.472;2023-05-29T07:26:03;15.38;;;3.30;;
75234;SDS011;63817;51.228;-1.472;2023-05-29T07:28:28;23.75;;;3.50;;
75234;SDS011;63817;51.228;-1.472;2023-05-29T07:30:53;15.63;;;3.15;;
75234;SDS011;63817;51.228;-1.472;2023-05-29T07:33:19;15.88;;;3.70;;
75234;SDS011;63817;51.228;-1.472;2023-05-29T07:35:45;13.18;;;3.42;;
75234;SDS011;63817;51.228;-1.472;2023-05-29T07:38:10;16.67;;;3.40;;
75234;SDS011;63817;51.228;-1.472;2023-05-29T07:40:36;13.50;;;3.00;;
75234;SDS011;63817;51.228;-1.472;2023-05-29T07:43:01;11.73;;;2.88;;
75234;SDS011;63817;51.228;-1.472;2023-05-29T07:45:26;14.02;;;3.38;;
75234;SDS011;63817;51.228;-1.472;2023-05-29T07:47:52;13.70;;;3.25;;
75234;SDS011;63817;51.228;-1.472;2023-05-29T07:50:17;15.50;;;3.15;;
75234;SDS011;63817;51.228;-1.472;2023-05-29T07:52:43;15.90;;;3.55;;
75234;SDS011;63817;51.228;-1.472;2023-05-29T07:55:09;12.80;;;3.92;;
75234;SDS011;63817;51.228;-1.472;2023-05-29T07:57:34;15.45;;;3.85;;
75234;SDS011;63817;51.228;-1.472;2023-05-29T08:00:00;15.05;;;2.97;;
75234;SDS011;63817;51.228;-1.472;2023-05-29T08:02:30;13.00;;;3.45;;
75234;SDS011;63817;51.228;-1.472;2023-05-29T08:04:56;18.10;;;3.60;;
75234;SDS011;63817;51.228;-1.472;2023-05-29T08:07:21;10.65;;;3.17;;
75234;SDS011;63817;51.228;-1.472;2023-05-29T08:09:47;13.68;;;3.47;;
75234;SDS011;63817;51.228;-1.472;2023-05-29T08:12:12;23.90;;;3.83;;
75234;SDS011;63817;51.228;-1.472;2023-05-29T08:14:37;18.98;;;3.10;;
75234;SDS011;63817;51.228;-1.472;2023-05-29T08:17:03;19.00;;;3.70;;
75234;SDS011;63817;51.228;-1.472;2023-05-29T08:19:28;11.77;;;3.00;;
75234;SDS011;63817;51.228;-1.472;2023-05-29T08:21:54;10.20;;;2.95;;
75234;SDS011;63817;51.228;-1.472;2023-05-29T08:24:19;15.70;;;2.88;;
75234;SDS011;63817;51.228;-1.472;2023-05-29T08:26:45;21.33;;;3.47;;
75234;SDS011;63817;51.228;-1.472;2023-05-29T08:29:10;14.73;;;3.45;;
75234;SDS011;63817;51.228;-1.472;2023-05-29T08:31:36;15.13;;;2.60;;
75234;SDS011;63817;51.228;-1.472;2023-05-29T08:34:01;9.93;;;3.20;;
75234;SDS011;63817;51.228;-1.472;2023-05-29T08:36:27;14.77;;;2.88;;
75234;SDS011;63817;51.228;-1.472;2023-05-29T08:38:52;14.07;;;2.80;;
75234;SDS011;63817;51.228;-1.472;2023-05-29T08:41:21;14.60;;;3.67;;
75234;SDS011;63817;51.228;-1.472;2023-05-29T08:43:54;15.85;;;3.28;;
75234;SDS011;63817;51.228;-1.472;2023-05-29T08:46:19;10.23;;;2.92;;
75234;SDS011;63817;51.228;-1.472;2023-05-29T08:48:48;14.18;;;2.70;;
75234;SDS011;63817;51.228;-1.472;2023-05-29T08:51:20;10.90;;;2.65;;
75234;SDS011;63817;51.228;-1.472;2023-05-29T08:53:48;11.07;;;2.70;;
75234;SDS011;63817;51.228;-1.472;2023-05-29T08:56:14;13.38;;;3.38;;
75234;SDS011;63817;51.228;-1.472;2023-05-29T08:58:39;12.30;;;2.97;;
75234;SDS011;63817;51.228;-1.472;2023-05-29T09:01:05;12.40;;;3.08;;
75234;SDS011;63817;51.228;-1.472;2023-05-29T09:03:30;16.25;;;2.92;;
75234;SDS011;63817;51.228;-1.472;2023-05-29T09:05:59;13.35;;;3.08;;
75234;SDS011;63817;51.228;-1.472;2023-05-29T09:08:25;8.82;;;3.15;;
75234;SDS011;63817;51.228;-1.472;2023-05-29T09:10:51;14.45;;;2.75;;
75234;SDS011;63817;51.228;-1.472;2023-05-29T09:13:16;9.90;;;2.78;;
75234;SDS011;63817;51.228;-1.472;2023-05-29T09:15:42;10.82;;;2.53;;
75234;SDS011;63817;51.228;-1.472;2023-05-29T09:18:08;10.75;;;2.60;;
75234;SDS011;63817;51.228;-1.472;2023-05-29T09:20:33;9.30;;;3.00;;
75234;SDS011;63817;51.228;-1.472;2023-05-29T09:23:03;10.50;;;2.63;;
75234;SDS011;63817;51.228;-1.472;2023-05-29T09:25:30;9.45;;;2.60;;
75234;SDS011;63817;51.228;-1.472;2023-05-29T09:33:05;17.05;;;3.45;;
75234;SDS011;63817;51.228;-1.472;2023-05-29T09:35:35;11.55;;;2.60;;
75234;SDS011;63817;51.228;-1.472;2023-05-29T09:38:01;11.80;;;2.50;;
75234;SDS011;63817;51.228;-1.472;2023-05-29T09:40:29;12.85;;;2.83;;
75234;SDS011;63817;51.228;-1.472;2023-05-29T09:42:54;13.85;;;2.67;;
75234;SDS011;63817;51.228;-1.472;2023-05-29T09:45:20;8.00;;;2.88;;
75234;SDS011;63817;51.228;-1.472;2023-05-29T09:47:46;14.10;;;2.85;;
75234;SDS011;63817;51.228;-1.472;2023-05-29T09:50:18;14.57;;;2.53;;
75234;SDS011;63817;51.228;-1.472;2023-05-29T09:52:45;12.35;;;2.70;;
75234;SDS011;63817;51.228;-1.472;2023-05-29T09:55:12;10.70;;;2.67;;
75234;SDS011;63817;51.228;-1.472;2023-05-29T09:57:43;9.48;;;2.83;;
75234;SDS011;63817;51.228;-1.472;2023-05-29T10:00:10;11.45;;;2.50;;
75234;SDS011;63817;51.228;-1.472;2023-05-29T10:02:38;12.57;;;2.70;;
75234;SDS011;63817;51.228;-1.472;2023-05-29T10:05:05;9.68;;;2.75;;
75234;SDS011;63817;51.228;-1.472;2023-05-29T10:07:32;14.90;;;2.75;;
75234;SDS011;63817;51.228;-1.472;2023-05-29T10:10:04;8.68;;;2.75;;
75234;SDS011;63817;51.228;-1.472;2023-05-29T10:12:32;11.80;;;3.03;;
75234;SDS011;63817;51.228;-1.472;2023-05-29T10:15:01;10.50;;;3.03;;
75234;SDS011;63817;51.228;-1.472;2023-05-29T10:17:34;9.30;;;2.17;;
75234;SDS011;63817;51.228;-1.472;2023-05-29T10:20:01;12.02;;;2.20;;
75234;SDS011;63817;51.228;-1.472;2023-05-29T10:22:27;8.00;;;2.58;;
75234;SDS011;63817;51.228;-1.472;2023-05-29T10:24:53;11.07;;;2.85;;
75234;SDS011;63817;51.228;-1.472;2023-05-29T10:27:21;10.23;;;2.38;;
75234;SDS011;63817;51.228;-1.472;2023-05-29T10:29:51;12.38;;;2.50;;
75234;SDS011;63817;51.228;-1.472;2023-05-29T10:38:26;8.45;;;2.83;;
75234;SDS011;63817;51.228;-1.472;2023-05-29T10:40:52;7.88;;;2.38;;
75234;SDS011;63817;51.228;-1.472;2023-05-29T10:43:33;8.95;;;2.03;;
75234;SDS011;63817;51.228;-1.472;2023-05-29T10:45:59;8.35;;;2.30;;
75234;SDS011;63817;51.228;-1.472;2023-05-29T10:50:56;11.90;;;3.15;;
75234;SDS011;63817;51.228;-1.472;2023-05-29T10:53:30;11.20;;;3.13;;
75234;SDS011;63817;51.228;-1.472;2023-05-29T10:55:56;11.63;;;2.22;;
75234;SDS011;63817;51.228;-1.472;2023-05-29T10:58:24;14.18;;;3.25;;
75234;SDS011;63817;51.228;-1.472;2023-05-29T11:00:51;8.35;;;2.78;;
75234;SDS011;63817;51.228;-1.472;2023-05-29T11:03:29;10.73;;;2.33;;
75234;SDS011;63817;51.228;-1.472;2023-05-29T11:06:02;10.48;;;2.80;;
75234;SDS011;63817;51.228;-1.472;2023-05-29T11:09:12;10.25;;;2.60;;
75234;SDS011;63817;51.228;-1.472;2023-05-29T11:11:32;9.25;;;3.05;;
75234;SDS011;63817;51.228;-1.472;2023-05-29T11:14:01;8.35;;;2.40;;
75234;SDS011;63817;51.228;-1.472;2023-05-29T11:18:55;6.00;;;2.25;;
75234;SDS011;63817;51.228;-1.472;2023-05-29T11:24:08;11.65;;;3.35;;
75234;SDS011;63817;51.228;-1.472;2023-05-29T11:26:46;11.13;;;2.90;;
75234;SDS011;63817;51.228;-1.472;2023-05-29T11:29:12;22.13;;;3.53;;
75234;SDS011;63817;51.228;-1.472;2023-05-29T11:31:39;8.82;;;2.47;;
75234;SDS011;63817;51.228;-1.472;2023-05-29T11:34:05;11.35;;;3.08;;
75234;SDS011;63817;51.228;-1.472;2023-05-29T11:36:36;9.18;;;3.38;;
75234;SDS011;63817;51.228;-1.472;2023-05-29T11:39:02;12.80;;;2.83;;
75234;SDS011;63817;51.228;-1.472;2023-05-29T11:41:28;11.48;;;2.95;;
75234;SDS011;63817;51.228;-1.472;2023-05-29T11:43:58;11.18;;;2.65;;
75234;SDS011;63817;51.228;-1.472;2023-05-29T11:46:24;10.20;;;2.50;;
75234;SDS011;63817;51.228;-1.472;2023-05-29T11:48:51;8.07;;;2.53;;
75234;SDS011;63817;51.228;-1.472;2023-05-29T11:51:17;8.95;;;2.03;;
75234;SDS011;63817;51.228;-1.472;2023-05-29T11:53:43;9.95;;;2.75;;
75234;SDS011;63817;51.228;-1.472;2023-05-29T11:56:09;10.85;;;2.72;;
75234;SDS011;63817;51.228;-1.472;2023-05-29T11:58:39;10.18;;;2.75;;
75234;SDS011;63817;51.228;-1.472;2023-05-29T12:01:05;8.63;;;3.15;;
75234;SDS011;63817;51.228;-1.472;2023-05-29T12:03:42;8.10;;;2.33;;
75234;SDS011;63817;51.228;-1.472;2023-05-29T12:06:08;11.55;;;2.92;;
75234;SDS011;63817;51.228;-1.472;2023-05-29T12:08:35;9.20;;;2.47;;
75234;SDS011;63817;51.228;-1.472;2023-05-29T12:11:02;7.93;;;2.55;;
75234;SDS011;63817;51.228;-1.472;2023-05-29T12:13:27;11.27;;;2.70;;
75234;SDS011;63817;51.228;-1.472;2023-05-29T12:15:54;13.75;;;3.60;;
75234;SDS011;63817;51.228;-1.472;2023-05-29T12:18:21;6.97;;;2.78;;
75234;SDS011;63817;51.228;-1.472;2023-05-29T12:20:47;8.57;;;2.90;;
75234;SDS011;63817;51.228;-1.472;2023-05-29T12:23:12;9.50;;;2.67;;
75234;SDS011;63817;51.228;-1.472;2023-05-29T12:25:38;12.63;;;2.55;;
75234;SDS011;63817;51.228;-1.472;2023-05-29T12:28:04;6.35;;;2.58;;
75234;SDS011;63817;51.228;-1.472;2023-05-29T12:30:30;7.57;;;2.60;;
75234;SDS011;63817;51.228;-1.472;2023-05-29T12:32:55;11.70;;;3.30;;
75234;SDS011;63817;51.228;-1.472;2023-05-29T12:37:48;10.80;;;2.55;;
75234;SDS011;63817;51.228;-1.472;2023-05-29T12:40:24;10.75;;;2.72;;
75234;SDS011;63817;51.228;-1.472;2023-05-29T12:42:57;13.40;;;3.40;;
75234;SDS011;63817;51.228;-1.472;2023-05-29T12:47:52;12.88;;;3.20;;
75234;SDS011;63817;51.228;-1.472;2023-05-29T12:50:25;6.28;;;2.38;;
75234;SDS011;63817;51.228;-1.472;2023-05-29T12:55:20;13.93;;;2.88;;
75234;SDS011;63817;51.228;-1.472;2023-05-29T12:57:45;11.57;;;2.70;;
75234;SDS011;63817;51.228;-1.472;2023-05-29T13:00:11;7.05;;;2.80;;
75234;SDS011;63817;51.228;-1.472;2023-05-29T13:02:37;10.98;;;3.03;;
75234;SDS011;63817;51.228;-1.472;2023-05-29T13:05:03;11.23;;;2.75;;
75234;SDS011;63817;51.228;-1.472;2023-05-29T13:07:28;10.90;;;2.80;;
75234;SDS011;63817;51.228;-1.472;2023-05-29T13:09:55;9.25;;;2.50;;
75234;SDS011;63817;51.228;-1.472;2023-05-29T13:12:20;9.57;;;3.00;;
75234;SDS011;63817;51.228;-1.472;2023-05-29T13:14:46;8.52;;;2.78;;
75234;SDS011;63817;51.228;-1.472;2023-05-29T13:17:12;10.40;;;2.75;;
75234;SDS011;63817;51.228;-1.472;2023-05-29T13:19:37;6.22;;;2.30;;
75234;SDS011;63817;51.228;-1.472;2023-05-29T13:22:02;7.78;;;2.55;;
75234;SDS011;63817;51.228;-1.472;2023-05-29T13:24:28;9.20;;;2.78;;
75234;SDS011;63817;51.228;-1.472;2023-05-29T13:26:53;12.60;;;2.50;;
75234;SDS011;63817;51.228;-1.472;2023-05-29T13:29:19;11.02;;;2.63;;
75234;SDS011;63817;51.228;-1.472;2023-05-29T13:31:45;8.45;;;2.38;;
75234;SDS011;63817;51.228;-1.472;2023-05-29T13:34:11;8.93;;;3.28;;
75234;SDS011;63817;51.228;-1.472;2023-05-29T13:36:36;14.48;;;3.53;;
75234;SDS011;63817;51.228;-1.472;2023-05-29T13:39:02;10.82;;;2.65;;
75234;SDS011;63817;51.228;-1.472;2023-05-29T13:41:29;10.10;;;3.22;;
75234;SDS011;63817;51.228;-1.472;2023-05-29T13:43:55;17.63;;;3.10;;
75234;SDS011;63817;51.228;-1.472;2023-05-29T13:46:21;12.68;;;2.60;;
75234;SDS011;63817;51.228;-1.472;2023-05-29T13:48:47;11.88;;;2.80;;
75234;SDS011;63817;51.228;-1.472;2023-05-29T13:51:12;16.73;;;3.40;;
75234;SDS011;63817;51.228;-1.472;2023-05-29T13:53:37;13.25;;;3.08;;
75234;SDS011;63817;51.228;-1.472;2023-05-29T13:56:03;13.80;;;3.15;;
75234;SDS011;63817;51.228;-1.472;2023-05-29T13:58:28;10.60;;;3.22;;
75234;SDS011;63817;51.228;-1.472;2023-05-29T14:00:54;8.65;;;2.83;;
75234;SDS011;63817;51.228;-1.472;2023-05-29T14:03:20;10.98;;;2.63;;
75234;SDS011;63817;51.228;-1.472;2023-05-29T14:05:48;13.95;;;3.58;;
75234;SDS011;63817;51.228;-1.472;2023-05-29T14:08:14;8.45;;;2.67;;
75234;SDS011;63817;51.228;-1.472;2023-05-29T14:10:39;8.23;;;3.20;;
75234;SDS011;63817;51.228;-1.472;2023-05-29T14:13:05;13.88;;;3.17;;
75234;SDS011;63817;51.228;-1.472;2023-05-29T14:15:30;6.80;;;2.72;;
75234;SDS011;63817;51.228;-1.472;2023-05-29T14:17:56;8.23;;;2.55;;
75234;SDS011;63817;51.228;-1.472;2023-05-29T14:20:22;12.18;;;2.85;;
75234;SDS011;63817;51.228;-1.472;2023-05-29T14:22:47;12.57;;;2.70;;
75234;SDS011;63817;51.228;-1.472;2023-05-29T14:25:13;13.10;;;3.65;;
75234;SDS011;63817;51.228;-1.472;2023-05-29T14:27:38;9.10;;;2.97;;
75234;SDS011;63817;51.228;-1.472;2023-05-29T14:30:03;9.48;;;2.47;;
75234;SDS011;63817;51.228;-1.472;2023-05-29T14:32:29;11.32;;;3.25;;
75234;SDS011;63817;51.228;-1.472;2023-05-29T14:34:55;10.43;;;3.05;;
75234;SDS011;63817;51.228;-1.472;2023-05-29T14:37:22;11.40;;;3.40;;
75234;SDS011;63817;51.228;-1.472;2023-05-29T14:39:48;10.90;;;2.80;;
75234;SDS011;63817;51.228;-1.472;2023-05-29T14:42:13;8.45;;;2.78;;
75234;SDS011;63817;51.228;-1.472;2023-05-29T14:44:40;7.38;;;2.83;;
75234;SDS011;63817;51.228;-1.472;2023-05-29T14:47:06;13.82;;;3.22;;
75234;SDS011;63817;51.228;-1.472;2023-05-29T14:49:31;8.38;;;2.40;;
75234;SDS011;63817;51.228;-1.472;2023-05-29T14:51:58;8.15;;;2.92;;
75234;SDS011;63817;51.228;-1.472;2023-05-29T14:54:24;7.65;;;2.70;;
75234;SDS011;63817;51.228;-1.472;2023-05-29T14:56:49;10.73;;;3.85;;
75234;SDS011;63817;51.228;-1.472;2023-05-29T14:59:14;10.30;;;3.42;;